createdAt,value
2018-06-23T00:00:07.000Z,20.6
2018-06-23T00:10:08.000Z,20.5
2018-06-23T00:20:11.000Z,20.5
2018-06-23T00:30:07.000Z,20.5
2018-06-23T00:40:10.000Z,20.5
2018-06-23T00:50:07.000Z,20.5
2018-06-23T01:00:09.000Z,20.5
2018-06-23T01:10:07.000Z,20.4
2018-06-23T01:20:07.000Z,20.4
2018-06-23T01:30:08.000Z,20.3
2018-06-23T01:40:08.000Z,20.3
2018-06-23T01:50:08.000Z,20.2
2018-06-23T02:00:08.000Z,20.2
2018-06-23T02:10:08.000Z,20.2
2018-06-23T02:20:08.000Z,20.2
2018-06-23T02:30:08.000Z,20.1
2018-06-23T02:40:08.000Z,20.2
2018-06-23T02:50:08.000Z,20.2
2018-06-23T03:00:08.000Z,20.1
2018-06-23T03:10:08.000Z,20
2018-06-23T03:20:08.000Z,20.2
2018-06-23T03:30:08.000Z,20.1
2018-06-23T03:40:08.000Z,20
2018-06-23T03:50:08.000Z,20
2018-06-23T04:00:08.000Z,20
2018-06-23T04:10:08.000Z,19.9
2018-06-23T04:20:08.000Z,19.9
2018-06-23T04:30:09.000Z,20
2018-06-23T04:40:08.000Z,19.8
2018-06-23T04:50:08.000Z,19.9
2018-06-23T05:00:08.000Z,19.7
2018-06-23T05:10:08.000Z,19.8
2018-06-23T05:20:08.000Z,19.8
2018-06-23T05:30:08.000Z,20.1
2018-06-23T05:40:08.000Z,20.7
2018-06-23T05:50:10.000Z,20.9
2018-06-23T06:00:08.000Z,21.1
2018-06-23T06:10:08.000Z,21.1
2018-06-23T06:20:08.000Z,21.2
2018-06-23T06:30:09.000Z,21.3
2018-06-23T06:40:08.000Z,21.4
2018-06-23T06:50:09.000Z,21.5
2018-06-23T07:00:08.000Z,21.5
2018-06-23T07:10:08.000Z,21.6
2018-06-23T07:20:08.000Z,21.5
2018-06-23T07:30:08.000Z,21.8
2018-06-23T07:40:08.000Z,21.6
2018-06-23T07:50:08.000Z,21.7
2018-06-23T08:00:08.000Z,21.7
2018-06-23T08:10:08.000Z,21.7
2018-06-23T08:20:09.000Z,21.7
2018-06-23T08:30:09.000Z,21.8
2018-06-23T08:40:09.000Z,21.8
2018-06-23T08:50:09.000Z,21.9
2018-06-23T09:00:09.000Z,21.9
2018-06-23T09:10:09.000Z,21.8
2018-06-23T09:20:09.000Z,21.9
2018-06-23T09:30:09.000Z,21.9
2018-06-23T09:40:09.000Z,21.9
2018-06-23T09:50:09.000Z,21.7
2018-06-23T10:00:09.000Z,21.6
2018-06-23T10:10:09.000Z,21.5
2018-06-23T10:20:09.000Z,21.3
2018-06-23T10:30:09.000Z,21.2
2018-06-23T10:40:09.000Z,21.2
2018-06-23T10:50:09.000Z,21.1
2018-06-23T11:00:09.000Z,21.2
2018-06-23T11:10:09.000Z,21.2
2018-06-23T11:20:09.000Z,21.2
2018-06-23T11:30:09.000Z,21.3
2018-06-23T11:40:09.000Z,21.3
2018-06-23T11:50:09.000Z,21.1
2018-06-23T12:00:09.000Z,21.3
2018-06-23T12:10:09.000Z,21.2
2018-06-23T12:20:09.000Z,21.2
2018-06-23T12:30:09.000Z,21.3
2018-06-23T12:40:09.000Z,21.4
2018-06-23T12:50:10.000Z,21.3
2018-06-23T13:00:11.000Z,21.4
2018-06-23T13:10:09.000Z,21.5
2018-06-23T13:20:09.000Z,21.5
2018-06-23T13:30:12.000Z,21.7
2018-06-23T13:40:09.000Z,21.7
2018-06-23T13:50:09.000Z,21.7
2018-06-23T14:00:10.000Z,21.8
2018-06-23T14:10:09.000Z,21.8
2018-06-23T14:20:09.000Z,21.7
2018-06-23T14:30:09.000Z,21.7
2018-06-23T14:40:09.000Z,21.7
2018-06-23T14:50:09.000Z,21.7
2018-06-23T15:00:10.000Z,21.7
2018-06-23T15:10:09.000Z,21.8
2018-06-23T15:20:10.000Z,21.8
2018-06-23T15:30:10.000Z,22
2018-06-23T15:40:10.000Z,22.1
2018-06-23T15:50:10.000Z,22
2018-06-23T16:00:11.000Z,22
2018-06-23T16:10:10.000Z,22.1
2018-06-23T16:20:10.000Z,22.1
2018-06-23T16:30:10.000Z,22.1
2018-06-23T16:40:10.000Z,22.1
2018-06-23T16:50:10.000Z,22.1
2018-06-23T17:00:10.000Z,22.1
2018-06-23T17:10:10.000Z,22.1
2018-06-23T17:20:10.000Z,22.1
2018-06-23T17:30:10.000Z,22
2018-06-23T17:40:11.000Z,22.1
2018-06-23T17:50:12.000Z,22.1
2018-06-23T18:00:10.000Z,22.1
2018-06-23T18:10:10.000Z,22.1
2018-06-23T18:20:11.000Z,22.1
2018-06-23T18:30:11.000Z,22.1
2018-06-23T18:40:10.000Z,22.2
2018-06-23T18:50:10.000Z,22.2
2018-06-23T19:00:10.000Z,22.1
2018-06-23T19:10:10.000Z,22.2
2018-06-23T19:20:10.000Z,22.1
2018-06-23T19:30:10.000Z,22.1
2018-06-23T19:40:10.000Z,22.1
2018-06-23T19:50:10.000Z,22.1
2018-06-23T20:00:10.000Z,22.1
2018-06-23T20:10:10.000Z,22.1
2018-06-23T20:20:10.000Z,22.1
2018-06-23T20:30:10.000Z,22
2018-06-23T20:40:10.000Z,22.1
2018-06-23T20:50:11.000Z,22.1
2018-06-23T21:00:10.000Z,22.1
2018-06-23T21:10:10.000Z,22.1
2018-06-23T21:20:10.000Z,22.1
2018-06-23T21:30:10.000Z,22.1
2018-06-23T21:40:10.000Z,22
2018-06-23T21:50:10.000Z,21.9
2018-06-23T22:00:11.000Z,22
2018-06-23T22:10:10.000Z,22.1
2018-06-23T22:20:11.000Z,22.1
2018-06-23T22:30:12.000Z,22.1
2018-06-23T22:40:11.000Z,22.1
2018-06-23T22:50:11.000Z,22.2
2018-06-23T23:00:11.000Z,21.7
2018-06-23T23:10:13.000Z,21.4
2018-06-23T23:20:11.000Z,21.3
2018-06-23T23:30:11.000Z,21.2
2018-06-23T23:40:11.000Z,21.2
2018-06-23T23:50:11.000Z,21
